Time;durP1;ratioP1;P1;durP2;ratioP2;P2;SDS_P1;SDS_P2;PMS_P1;PMS_P2;Temp;Humidity;BMP_temperature;BMP_pressure;BME280_temperature;BME280_humidity;BME280_pressure;Samples;Min_cycle;Max_cycle;Signal;HPM_P1;HPM_P2
2021/08/13 00:00:35;;;;;;;;;;;;;;;;;;2107044;28;1369;-85
2021/08/13 00:01:36;;;;;;;;;;;;;;;;;;2103559;28;1343;-86
2021/08/13 00:02:40;;;;;;;;;;;;;;;;;;2095575;28;1914;-86
2021/08/13 00:03:42;;;;;;;;;;;;;;;;;;2099886;28;1463;-85
2021/08/13 00:04:43;;;;;;;;;;;;;;;;;;2107529;28;1322;-86
2021/08/13 00:05:45;;;;;;;;;;;;;;;;;;2115998;28;2020;-85
2021/08/13 00:06:51;;;;;;;;;;;;;;;;;;2107730;28;1379;-85
2021/08/13 00:07:52;;;;;;;;;;;;;;;;;;2108570;28;2012;-85
2021/08/13 00:08:56;;;;;;;;;;;;;;;;;;2100568;28;1246;-85
2021/08/13 00:09:57;;;;;;;;;;;;;;;;;;2092557;28;1222;-86
2021/08/13 00:10:59;;;;;;;;;;;;;;;;;;2100346;28;1755;-82
2021/08/13 00:12:01;;;;;;;;;;;;;;;;;;2100330;28;1297;-82
2021/08/13 00:13:01;;;;;;;;;;;;;;;;;;2097640;28;2053;-82
2021/08/13 00:14:03;;;;;;;;;;;;;;;;;;2109018;28;1606;-82
2021/08/13 00:15:05;;;;;;;;;;;;;;;;;;2108964;28;1370;-82
2021/08/13 00:16:06;;;;;;;;;;;;;;;;;;2108567;28;1939;-82
2021/08/13 00:17:08;;;;;;;;;;;;;;;;;;2108435;28;1230;-82
2021/08/13 00:18:10;;;;;;;;;;;;;;;;;;2107741;28;2012;-82
2021/08/13 00:19:11;;;;;;;;;;;;;;;;;;2108685;28;1268;-83
2021/08/13 00:20:13;;;;;;;;;;;;;;;;;;2108425;28;1644;-82
2021/08/13 00:21:14;;;;;;;;;;;;;;;;;;2108487;28;1329;-84
2021/08/13 00:22:16;;;;;;;;;;;;;;;;;;2108257;28;1547;-82
2021/08/13 00:23:17;;;;;;;;;;;;;;;;;;2107716;28;1910;-82
2021/08/13 00:24:21;;;;;;;;;;;;;;;;;;2108566;28;1815;-83
2021/08/13 00:25:25;;;;;;;;;;;;;;;;;;2106370;28;1260;-83
2021/08/13 00:26:27;;;;;;;;;;;;;;;;;;2116987;28;1340;-83
2021/08/13 00:27:29;;;;;;;;;;;;;;;;;;2108023;28;1693;-82
2021/08/13 00:28:30;;;;;;;;;;;;;;;;;;2108220;28;1379;-83
2021/08/13 00:29:34;;;;;;;;;;;;;;;;;;2107360;28;1713;-83
2021/08/13 00:30:34;;;;;;;;;;;;;;;;;;2108287;28;1556;-82
2021/08/13 00:31:37;;;;;;;;;;;;;;;;;;2108572;28;1413;-83
2021/08/13 00:32:37;;;;;;;;;;;;;;;;;;2105694;28;1909;-83
2021/08/13 00:33:39;;;;;;;;;;;;;;;;;;2100223;28;1378;-83
2021/08/13 00:34:40;;;;;;;;;;;;;;;;;;2099647;28;1580;-83
2021/08/13 00:35:43;;;;;;;;;;;;;;;;;;2102917;28;1765;-83
2021/08/13 00:36:44;;;;;;;;;;;;;;;;;;2108432;28;1603;-84
2021/08/13 00:37:48;;;;;;;;;;;;;;;;;;2105119;28;1961;-83
2021/08/13 00:38:50;;;;;;;;;;;;;;;;;;2116728;28;1628;-83
2021/08/13 00:39:54;;;;;;;;;;;;;;;;;;2108591;28;1520;-84
2021/08/13 00:40:57;;;;;;;;;;;;;;;;;;2116650;28;1406;-83
2021/08/13 00:42:00;;;;;;;;;;;;;;;;;;2116937;28;1549;-83
2021/08/13 00:43:04;;;;;;;;;;;;;;;;;;2106341;28;1906;-83
2021/08/13 00:44:05;;;;;;;;;;;;;;;;;;2108752;28;1408;-83
2021/08/13 00:45:10;;;;;;;;;;;;;;;;;;2117078;28;1649;-83
2021/08/13 00:46:20;;;;;;;;;;;;;;;;;;2108506;28;1208;-83
2021/08/13 00:47:41;;;;;;;;;;;;;;;;;;2108788;28;1684;-82
2021/08/13 00:48:47;;;;;;;;;;;;;;;;;;2108378;28;1575;-83
2021/08/13 00:50:09;;;;;;;;;;;;;;;;;;2111273;28;1524;-83
2021/08/13 00:51:18;;;;;;;;;;;;;;;;;;2116693;28;1911;-83
2021/08/13 00:52:18;;;;;;;;;;;;;;;;;;2107507;28;1838;-83
2021/08/13 00:53:22;;;;;;;;;;;;;;;;;;2108583;28;1606;-83
2021/08/13 00:54:25;;;;;;;;;;;;;;;;;;2108791;28;1439;-83
2021/08/13 00:55:33;;;;;;;;;;;;;;;;;;2100134;28;1351;-83
2021/08/13 00:56:37;;;;;;;;;;;;;;;;;;2096188;28;1341;-82
2021/08/13 00:57:58;;;;;;;;;;;;;;;;;;2107936;28;1823;-83
2021/08/13 00:59:20;;;;;;;;;;;;;;;;;;2116487;28;1407;-82
2021/08/13 01:00:26;;;;;;;;;;;;;;;;;;2114635;28;1382;-83
2021/08/13 01:01:30;;;;;;;;;;;;;;;;;;2108635;28;1334;-83
2021/08/13 01:02:32;;;;;;;;;;;;;;;;;;2107820;28;1720;-82
2021/08/13 01:04:02;;;;;;;;;;;;;;;;;;2106147;28;1644;-84
2021/08/13 01:05:04;;;;;;;;;;;;;;;;;;2116572;28;1326;-83
2021/08/13 01:06:10;;;;;;;;;;;;;;;;;;2106988;28;1849;-83
2021/08/13 01:07:11;;;;;;;;;;;;;;;;;;2108416;28;1675;-82
2021/08/13 01:08:13;;;;;;;;;;;;;;;;;;2107534;28;1847;-83
2021/08/13 01:09:14;;;;;;;;;;;;;;;;;;2105060;28;1362;-83
2021/08/13 01:10:16;;;;;;;;;;;;;;;;;;2108560;28;1630;-83
2021/08/13 01:11:26;;;;;;;;;;;;;;;;;;2101055;28;1218;-84
2021/08/13 01:12:31;;;;;;;;;;;;;;;;;;2100414;28;1917;-83
2021/08/13 01:13:37;;;;;;;;;;;;;;;;;;2100971;28;1289;-83
2021/08/13 01:14:42;;;;;;;;;;;;;;;;;;2100683;28;1828;-83
2021/08/13 01:15:50;;;;;;;;;;;;;;;;;;2101373;28;1409;-83
2021/08/13 01:16:53;;;;;;;;;;;;;;;;;;2092720;28;1424;-83
2021/08/13 01:17:57;;;;;;;;;;;;;;;;;;2088895;28;2015;-83
2021/08/13 01:19:14;;;;;;;;;;;;;;;;;;2091935;28;1358;-83
2021/08/13 01:20:26;;;;;;;;;;;;;;;;;;2101796;28;1433;-83
2021/08/13 01:21:32;;;;;;;;;;;;;;;;;;2109047;28;1856;-83
2021/08/13 01:22:41;;;;;;;;;;;;;;;;;;2108331;28;1975;-83
2021/08/13 01:23:45;;;;;;;;;;;;;;;;;;2108605;28;1910;-83
2021/08/13 01:24:49;;;;;;;;;;;;;;;;;;2108331;28;1304;-83
2021/08/13 01:25:54;;;;;;;;;;;;;;;;;;2108182;28;1993;-83
2021/08/13 01:27:01;;;;;;;;;;;;;;;;;;2107930;28;1262;-83
2021/08/13 01:28:07;;;;;;;;;;;;;;;;;;2113290;28;1908;-83
2021/08/13 01:29:18;;;;;;;;;;;;;;;;;;2109270;28;1561;-83
2021/08/13 01:30:21;;;;;;;;;;;;;;;;;;2116624;28;1332;-83
2021/08/13 01:31:37;;;;;;;;;;;;;;;;;;2109728;28;1368;-82
2021/08/13 01:32:43;;;;;;;;;;;;;;;;;;2115235;28;2090;-82
2021/08/13 01:33:48;;;;;;;;;;;;;;;;;;2108382;28;1504;-83
2021/08/13 01:34:54;;;;;;;;;;;;;;;;;;2106227;28;1421;-83
2021/08/13 01:35:56;;;;;;;;;;;;;;;;;;2108430;28;1415;-82
2021/08/13 01:36:58;;;;;;;;;;;;;;;;;;2099689;28;1486;-81
2021/08/13 01:38:04;;;;;;;;;;;;;;;;;;2100358;28;1501;-82
2021/08/13 01:39:06;;;;;;;;;;;;;;;;;;2108442;28;889;-81
2021/08/13 01:40:11;;;;;;;;;;;;;;;;;;2114671;28;1329;-82
2021/08/13 01:41:15;;;;;;;;;;;;;;;;;;2096449;28;1877;-82
2021/08/13 01:42:17;;;;;;;;;;;;;;;;;;2100075;28;1707;-82
2021/08/13 01:43:20;;;;;;;;;;;;;;;;;;2108058;28;1910;-81
2021/08/13 01:44:24;;;;;;;;;;;;;;;;;;2100313;28;1391;-82
2021/08/13 01:45:28;;;;;;;;;;;;;;;;;;2099644;28;1685;-81
2021/08/13 01:46:30;;;;;;;;;;;;;;;;;;2108582;28;1584;-82
2021/08/13 01:47:35;;;;;;;;;;;;;;;;;;2108381;28;1567;-82
2021/08/13 01:48:38;;;;;;;;;;;;;;;;;;2101208;28;1328;-82
2021/08/13 01:49:44;;;;;;;;;;;;;;;;;;2099905;28;1350;-83
2021/08/13 01:50:47;;;;;;;;;;;;;;;;;;2100003;28;1635;-82
2021/08/13 01:51:48;;;;;;;;;;;;;;;;;;2107866;28;1157;-82
2021/08/13 01:52:51;;;;;;;;;;;;;;;;;;2108137;28;1225;-81
2021/08/13 01:53:54;;;;;;;;;;;;;;;;;;2116822;28;1237;-82
2021/08/13 01:54:57;;;;;;;;;;;;;;;;;;2116573;28;1396;-82
2021/08/13 01:55:59;;;;;;;;;;;;;;;;;;2116456;28;1370;-82
2021/08/13 01:57:02;;;;;;;;;;;;;;;;;;2100032;28;977;-83
2021/08/13 01:58:06;;;;;;;;;;;;;;;;;;2099786;28;1887;-82
2021/08/13 01:59:07;;;;;;;;;;;;;;;;;;2107832;28;1447;-83
2021/08/13 02:00:10;;;;;;;;;;;;;;;;;;2100564;28;1679;-82
2021/08/13 02:01:17;;;;;;;;;;;;;;;;;;2116010;28;1425;-82
2021/08/13 02:02:20;;;;;;;;;;;;;;;;;;2116196;28;1631;-82
2021/08/13 02:03:23;;;;;;;;;;;;;;;;;;2108159;28;1092;-82
2021/08/13 02:04:26;;;;;;;;;;;;;;;;;;2099922;28;1662;-83
2021/08/13 02:05:30;;;;;;;;;;;;;;;;;;2100024;28;1317;-82
2021/08/13 02:06:34;;;;;;;;;;;;;;;;;;2099507;28;1242;-82
2021/08/13 02:07:43;;;;;;;;;;;;;;;;;;2109629;28;1341;-82
2021/08/13 02:08:47;;;;;;;;;;;;;;;;;;2107764;28;1805;-82
2021/08/13 02:10:10;;;;;;;;;;;;;;;;;;2114476;28;1277;-82
2021/08/13 02:11:14;;;;;;;;;;;;;;;;;;2116270;28;1356;-82
2021/08/13 02:12:18;;;;;;;;;;;;;;;;;;2107843;28;1821;-84
2021/08/13 02:13:21;;;;;;;;;;;;;;;;;;2116256;28;1568;-83
2021/08/13 02:14:24;;;;;;;;;;;;;;;;;;2105201;28;1865;-83
2021/08/13 02:15:28;;;;;;;;;;;;;;;;;;2100038;28;1446;-83
2021/08/13 02:16:30;;;;;;;;;;;;;;;;;;2107472;28;1304;-82
2021/08/13 02:17:34;;;;;;;;;;;;;;;;;;2099383;28;1618;-82
2021/08/13 02:18:37;;;;;;;;;;;;;;;;;;2091773;28;1278;-83
2021/08/13 02:19:43;;;;;;;;;;;;;;;;;;2099662;28;1342;-82
2021/08/13 02:20:46;;;;;;;;;;;;;;;;;;2095007;28;1314;-83
2021/08/13 02:21:49;;;;;;;;;;;;;;;;;;2107441;28;1385;-83
2021/08/13 02:22:51;;;;;;;;;;;;;;;;;;2102975;28;2131;-82
2021/08/13 02:23:53;;;;;;;;;;;;;;;;;;2107678;28;1914;-82
2021/08/13 02:24:56;;;;;;;;;;;;;;;;;;2107627;28;1547;-83
2021/08/13 02:25:58;;;;;;;;;;;;;;;;;;2099365;28;1789;-82
2021/08/13 02:27:00;;;;;;;;;;;;;;;;;;2099522;28;1539;-82
2021/08/13 02:28:04;;;;;;;;;;;;;;;;;;2105316;28;1496;-83
2021/08/13 02:29:06;;;;;;;;;;;;;;;;;;2107782;28;1529;-83
2021/08/13 02:30:08;;;;;;;;;;;;;;;;;;2107134;28;1739;-84
2021/08/13 02:31:12;;;;;;;;;;;;;;;;;;2104489;28;2074;-83
2021/08/13 02:32:14;;;;;;;;;;;;;;;;;;2107619;28;1713;-82
2021/08/13 02:33:15;;;;;;;;;;;;;;;;;;2106749;28;2012;-83
2021/08/13 02:34:16;;;;;;;;;;;;;;;;;;2107411;28;1370;-82
2021/08/13 02:35:20;;;;;;;;;;;;;;;;;;2099187;28;1357;-83
2021/08/13 02:36:28;;;;;;;;;;;;;;;;;;2100786;28;2089;-82
2021/08/13 02:37:32;;;;;;;;;;;;;;;;;;2092452;28;2116;-82
2021/08/13 02:38:38;;;;;;;;;;;;;;;;;;2099836;28;1479;-82
2021/08/13 02:39:43;;;;;;;;;;;;;;;;;;2108317;28;1342;-82
2021/08/13 02:40:49;;;;;;;;;;;;;;;;;;2113570;28;1434;-82
2021/08/13 02:41:51;;;;;;;;;;;;;;;;;;2100409;28;1419;-81
2021/08/13 02:43:01;;;;;;;;;;;;;;;;;;2099432;28;1866;-82
2021/08/13 02:44:07;;;;;;;;;;;;;;;;;;2104238;28;1917;-82
2021/08/13 02:45:09;;;;;;;;;;;;;;;;;;2107862;28;1335;-83
2021/08/13 02:46:15;;;;;;;;;;;;;;;;;;2099542;28;1437;-82
2021/08/13 02:47:19;;;;;;;;;;;;;;;;;;2100408;28;1687;-82
2021/08/13 02:48:20;;;;;;;;;;;;;;;;;;2115407;28;1610;-82
2021/08/13 02:49:25;;;;;;;;;;;;;;;;;;2107983;28;1274;-82
2021/08/13 02:50:30;;;;;;;;;;;;;;;;;;2099437;28;1715;-82
2021/08/13 02:51:32;;;;;;;;;;;;;;;;;;2107477;28;1532;-81
2021/08/13 02:52:40;;;;;;;;;;;;;;;;;;2111887;28;1754;-82
2021/08/13 02:53:43;;;;;;;;;;;;;;;;;;2108411;28;1300;-81
2021/08/13 02:54:46;;;;;;;;;;;;;;;;;;2115568;28;1241;-82
2021/08/13 02:55:49;;;;;;;;;;;;;;;;;;2105983;28;1975;-82
2021/08/13 02:56:51;;;;;;;;;;;;;;;;;;2103189;28;1482;-82
2021/08/13 02:57:56;;;;;;;;;;;;;;;;;;2107339;28;1882;-82
2021/08/13 02:59:01;;;;;;;;;;;;;;;;;;2108076;28;1316;-81
2021/08/13 03:00:04;;;;;;;;;;;;;;;;;;2108240;28;1261;-82
2021/08/13 03:01:06;;;;;;;;;;;;;;;;;;2106982;28;1757;-82
2021/08/13 03:02:09;;;;;;;;;;;;;;;;;;2107673;28;1334;-82
2021/08/13 03:03:16;;;;;;;;;;;;;;;;;;2100158;28;1835;-82
2021/08/13 03:04:22;;;;;;;;;;;;;;;;;;2096220;28;1914;-82
2021/08/13 03:05:24;;;;;;;;;;;;;;;;;;2089062;28;1398;-82
2021/08/13 03:06:32;;;;;;;;;;;;;;;;;;2099119;28;1838;-82
2021/08/13 03:07:37;;;;;;;;;;;;;;;;;;2101577;28;1924;-82
2021/08/13 03:08:41;;;;;;;;;;;;;;;;;;2107523;28;1453;-82
2021/08/13 03:09:43;;;;;;;;;;;;;;;;;;2113156;28;1291;-82
2021/08/13 03:10:47;;;;;;;;;;;;;;;;;;2099153;28;1833;-81
2021/08/13 03:11:54;;;;;;;;;;;;;;;;;;2101275;28;1419;-83
2021/08/13 03:12:56;;;;;;;;;;;;;;;;;;2102515;28;2165;-83
2021/08/13 03:14:00;;;;;;;;;;;;;;;;;;2107095;28;1786;-83
2021/08/13 03:15:05;;;;;;;;;;;;;;;;;;2107511;28;1686;-83
2021/08/13 03:16:11;;;;;;;;;;;;;;;;;;2106841;28;1840;-83
2021/08/13 03:17:17;;;;;;;;;;;;;;;;;;2107125;28;1668;-82
2021/08/13 03:18:18;;;;;;;;;;;;;;;;;;2107488;28;1293;-83
2021/08/13 03:19:20;;;;;;;;;;;;;;;;;;2109026;28;1698;-82
2021/08/13 03:20:22;;;;;;;;;;;;;;;;;;2094310;28;1506;-82
2021/08/13 03:21:44;;;;;;;;;;;;;;;;;;2105762;28;1369;-83
2021/08/13 03:22:45;;;;;;;;;;;;;;;;;;2103495;28;1855;-82
2021/08/13 03:23:47;;;;;;;;;;;;;;;;;;2109355;28;1528;-83
2021/08/13 03:24:49;;;;;;;;;;;;;;;;;;2099552;28;1902;-82
2021/08/13 03:25:50;;;;;;;;;;;;;;;;;;2097230;28;1841;-82
2021/08/13 03:26:55;;;;;;;;;;;;;;;;;;2099458;28;1452;-83
2021/08/13 03:27:56;;;;;;;;;;;;;;;;;;2104179;28;1910;-83
2021/08/13 03:28:58;;;;;;;;;;;;;;;;;;2107356;28;1346;-84
2021/08/13 03:29:59;;;;;;;;;;;;;;;;;;2107653;28;1327;-83
2021/08/13 03:31:00;;;;;;;;;;;;;;;;;;2106904;28;1876;-83
2021/08/13 03:32:04;;;;;;;;;;;;;;;;;;2099835;28;1442;-83
2021/08/13 03:33:07;;;;;;;;;;;;;;;;;;2099427;28;1890;-83
2021/08/13 03:34:08;;;;;;;;;;;;;;;;;;2107486;28;1516;-83
2021/08/13 03:35:11;;;;;;;;;;;;;;;;;;2107682;28;1296;-82
2021/08/13 03:36:12;;;;;;;;;;;;;;;;;;2101507;28;1920;-82
2021/08/13 03:37:16;;;;;;;;;;;;;;;;;;2090881;28;1486;-82
2021/08/13 03:38:18;;;;;;;;;;;;;;;;;;2091161;28;1325;-82
2021/08/13 03:39:20;;;;;;;;;;;;;;;;;;2091641;28;1406;-82
2021/08/13 03:40:21;;;;;;;;;;;;;;;;;;2098922;28;1314;-81
2021/08/13 03:41:26;;;;;;;;;;;;;;;;;;2105970;28;1572;-81
2021/08/13 03:42:27;;;;;;;;;;;;;;;;;;2108772;28;1950;-80
2021/08/13 03:43:29;;;;;;;;;;;;;;;;;;2117638;28;1373;-80
2021/08/13 03:44:31;;;;;;;;;;;;;;;;;;2109130;28;1961;-80
2021/08/13 03:45:34;;;;;;;;;;;;;;;;;;2109425;28;1549;-80
2021/08/13 03:46:36;;;;;;;;;;;;;;;;;;2109204;28;1497;-80
2021/08/13 03:47:40;;;;;;;;;;;;;;;;;;2109318;28;2088;-80
2021/08/13 03:48:41;;;;;;;;;;;;;;;;;;2108965;28;1504;-80
2021/08/13 03:49:44;;;;;;;;;;;;;;;;;;2109703;28;1308;-80
2021/08/13 03:50:44;;;;;;;;;;;;;;;;;;2106952;28;1393;-81
2021/08/13 03:51:47;;;;;;;;;;;;;;;;;;2101301;28;1291;-81
2021/08/13 03:52:49;;;;;;;;;;;;;;;;;;2100748;28;2045;-80
2021/08/13 03:53:52;;;;;;;;;;;;;;;;;;2101334;28;1469;-81
2021/08/13 03:54:52;;;;;;;;;;;;;;;;;;2100686;28;1219;-81
2021/08/13 03:55:59;;;;;;;;;;;;;;;;;;2104897;28;1285;-81
2021/08/13 03:57:01;;;;;;;;;;;;;;;;;;2117469;28;1317;-81
2021/08/13 03:58:03;;;;;;;;;;;;;;;;;;2109174;28;1369;-81
2021/08/13 03:59:05;;;;;;;;;;;;;;;;;;2108908;28;1470;-81
2021/08/13 04:00:08;;;;;;;;;;;;;;;;;;2117441;28;1239;-82
2021/08/13 04:01:19;;;;;;;;;;;;;;;;;;2111553;28;802;-81
2021/08/13 04:02:20;;;;;;;;;;;;;;;;;;2109402;28;2024;-81
2021/08/13 04:03:22;;;;;;;;;;;;;;;;;;2109319;28;1704;-82
2021/08/13 04:04:22;;;;;;;;;;;;;;;;;;2117567;28;1973;-81
2021/08/13 04:05:24;;;;;;;;;;;;;;;;;;2117710;28;1580;-81
2021/08/13 04:06:26;;;;;;;;;;;;;;;;;;2102225;28;1549;-81
2021/08/13 04:07:28;;;;;;;;;;;;;;;;;;2100575;28;2230;-80
2021/08/13 04:08:31;;;;;;;;;;;;;;;;;;2100398;28;1264;-81
2021/08/13 04:09:33;;;;;;;;;;;;;;;;;;2092465;28;1410;-81
2021/08/13 04:10:34;;;;;;;;;;;;;;;;;;2100736;28;805;-82
2021/08/13 04:11:36;;;;;;;;;;;;;;;;;;2116943;28;1324;-80
2021/08/13 04:12:37;;;;;;;;;;;;;;;;;;2108725;28;2093;-81
2021/08/13 04:13:47;;;;;;;;;;;;;;;;;;2110552;28;1305;-80
2021/08/13 04:14:48;;;;;;;;;;;;;;;;;;2108643;28;1414;-81
2021/08/13 04:15:50;;;;;;;;;;;;;;;;;;2108875;28;1681;-81
2021/08/13 04:16:51;;;;;;;;;;;;;;;;;;2108998;28;1406;-80
2021/08/13 04:17:53;;;;;;;;;;;;;;;;;;2108843;28;1875;-80
2021/08/13 04:18:57;;;;;;;;;;;;;;;;;;2109637;28;1846;-81
2021/08/13 04:20:03;;;;;;;;;;;;;;;;;;2109681;28;1871;-80
2021/08/13 04:21:07;;;;;;;;;;;;;;;;;;2116609;28;1847;-80
2021/08/13 04:22:08;;;;;;;;;;;;;;;;;;2108595;28;1299;-81
2021/08/13 04:23:10;;;;;;;;;;;;;;;;;;2108633;28;1684;-80
2021/08/13 04:24:14;;;;;;;;;;;;;;;;;;2117381;28;1459;-81
2021/08/13 04:25:14;;;;;;;;;;;;;;;;;;2109140;28;1989;-81
2021/08/13 04:26:17;;;;;;;;;;;;;;;;;;2108558;28;1295;-80
2021/08/13 04:27:18;;;;;;;;;;;;;;;;;;2108828;28;1710;-80
2021/08/13 04:28:19;;;;;;;;;;;;;;;;;;2108265;28;1554;-80
2021/08/13 04:29:20;;;;;;;;;;;;;;;;;;2108611;28;1565;-80
2021/08/13 04:30:22;;;;;;;;;;;;;;;;;;2108472;28;1541;-80
2021/08/13 04:31:23;;;;;;;;;;;;;;;;;;2101387;28;2034;-79
2021/08/13 04:32:24;;;;;;;;;;;;;;;;;;2101011;28;1992;-81
2021/08/13 04:33:26;;;;;;;;;;;;;;;;;;2100624;28;1189;-81
2021/08/13 04:34:34;;;;;;;;;;;;;;;;;;2101439;28;1368;-81
2021/08/13 04:35:35;;;;;;;;;;;;;;;;;;2099652;28;2073;-82
2021/08/13 04:36:38;;;;;;;;;;;;;;;;;;2108665;28;1376;-81
2021/08/13 04:37:38;;;;;;;;;;;;;;;;;;2108032;28;1285;-81
2021/08/13 04:38:40;;;;;;;;;;;;;;;;;;2108614;28;1770;-80
2021/08/13 04:39:43;;;;;;;;;;;;;;;;;;2108954;28;1262;-81
2021/08/13 04:40:45;;;;;;;;;;;;;;;;;;2107069;28;2027;-81
2021/08/13 04:41:47;;;;;;;;;;;;;;;;;;2100961;28;1316;-80
2021/08/13 04:42:49;;;;;;;;;;;;;;;;;;2100289;28;2020;-80
2021/08/13 04:43:53;;;;;;;;;;;;;;;;;;2100737;28;1817;-80
2021/08/13 04:44:54;;;;;;;;;;;;;;;;;;2100361;28;1972;-80
2021/08/13 04:45:55;;;;;;;;;;;;;;;;;;2110424;28;1926;-80
2021/08/13 04:46:56;;;;;;;;;;;;;;;;;;2108589;28;1863;-80
2021/08/13 04:47:58;;;;;;;;;;;;;;;;;;2106078;28;1346;-80
2021/08/13 04:48:59;;;;;;;;;;;;;;;;;;2100360;28;1589;-80
2021/08/13 04:50:01;;;;;;;;;;;;;;;;;;2109179;28;1964;-80
2021/08/13 04:51:02;;;;;;;;;;;;;;;;;;2110972;28;2144;-81
2021/08/13 04:52:05;;;;;;;;;;;;;;;;;;2108612;28;1425;-80
2021/08/13 04:53:06;;;;;;;;;;;;;;;;;;2106262;28;1928;-80
2021/08/13 04:54:08;;;;;;;;;;;;;;;;;;2100104;28;1518;-81
2021/08/13 04:55:11;;;;;;;;;;;;;;;;;;2100496;28;1423;-80
2021/08/13 04:56:13;;;;;;;;;;;;;;;;;;2099791;28;1266;-81
2021/08/13 04:57:14;;;;;;;;;;;;;;;;;;2108207;28;1835;-80
2021/08/13 04:58:16;;;;;;;;;;;;;;;;;;2107684;28;1253;-80
2021/08/13 04:59:17;;;;;;;;;;;;;;;;;;2100302;28;1449;-80
2021/08/13 05:00:23;;;;;;;;;;;;;;;;;;2103306;28;1471;-80
2021/08/13 05:01:24;;;;;;;;;;;;;;;;;;2108779;28;1687;-80
2021/08/13 05:02:27;;;;;;;;;;;;;;;;;;2108415;28;2009;-80
2021/08/13 05:03:29;;;;;;;;;;;;;;;;;;2109035;28;1348;-80
2021/08/13 05:04:30;;;;;;;;;;;;;;;;;;2108781;28;1301;-80
2021/08/13 05:05:33;;;;;;;;;;;;;;;;;;2100056;28;1973;-80
2021/08/13 05:06:34;;;;;;;;;;;;;;;;;;2100125;28;1214;-80
2021/08/13 05:07:36;;;;;;;;;;;;;;;;;;2099971;28;2100;-80
2021/08/13 05:08:38;;;;;;;;;;;;;;;;;;2100414;28;1469;-81
2021/08/13 05:09:40;;;;;;;;;;;;;;;;;;2100244;28;1327;-82
2021/08/13 05:10:42;;;;;;;;;;;;;;;;;;2100116;28;1367;-82
2021/08/13 05:11:44;;;;;;;;;;;;;;;;;;2108698;28;1297;-80
2021/08/13 05:12:44;;;;;;;;;;;;;;;;;;2100135;28;1373;-82
2021/08/13 05:13:47;;;;;;;;;;;;;;;;;;2100449;28;1461;-82
2021/08/13 05:14:48;;;;;;;;;;;;;;;;;;2108372;28;1337;-81
2021/08/13 05:15:50;;;;;;;;;;;;;;;;;;2100081;28;2023;-82
2021/08/13 05:16:51;;;;;;;;;;;;;;;;;;2100022;28;1297;-82
2021/08/13 05:17:52;;;;;;;;;;;;;;;;;;2104130;28;2080;-82
2021/08/13 05:18:53;;;;;;;;;;;;;;;;;;2108630;28;1415;-81
2021/08/13 05:19:55;;;;;;;;;;;;;;;;;;2108437;28;1748;-81
2021/08/13 05:20:58;;;;;;;;;;;;;;;;;;2108167;28;1669;-82
2021/08/13 05:22:01;;;;;;;;;;;;;;;;;;2108542;28;1344;-82
2021/08/13 05:23:05;;;;;;;;;;;;;;;;;;2100803;28;1309;-82
2021/08/13 05:24:06;;;;;;;;;;;;;;;;;;2108091;28;1520;-83
2021/08/13 05:25:09;;;;;;;;;;;;;;;;;;2108482;28;1906;-81
2021/08/13 05:26:11;;;;;;;;;;;;;;;;;;2094794;28;2015;-82
2021/08/13 05:27:12;;;;;;;;;;;;;;;;;;2095994;28;1709;-82
2021/08/13 05:28:14;;;;;;;;;;;;;;;;;;2107589;28;1338;-83
2021/08/13 05:29:15;;;;;;;;;;;;;;;;;;2104483;28;1605;-82
2021/08/13 05:30:17;;;;;;;;;;;;;;;;;;2107824;28;1714;-82
2021/08/13 05:31:21;;;;;;;;;;;;;;;;;;2115802;27;1362;-80
2021/08/13 05:32:24;;;;;;;;;;;;;;;;;;2106234;28;1680;-78
2021/08/13 05:33:24;;;;;;;;;;;;;;;;;;2102464;28;1656;-78
2021/08/13 05:34:26;;;;;;;;;;;;;;;;;;2104419;28;1452;-79
2021/08/13 05:35:27;;;;;;;;;;;;;;;;;;2102089;28;1457;-78
2021/08/13 05:36:36;;;;;;;;;;;;;;;;;;2106909;28;1205;-80
2021/08/13 05:37:37;;;;;;;;;;;;;;;;;;2099477;28;1260;-79
2021/08/13 05:38:39;;;;;;;;;;;;;;;;;;2105927;28;1503;-78
2021/08/13 05:39:40;;;;;;;;;;;;;;;;;;2104493;28;1674;-78
2021/08/13 05:40:42;;;;;;;;;;;;;;;;;;2102842;28;1628;-78
2021/08/13 05:41:46;;;;;;;;;;;;;;;;;;2103949;28;1344;-78
2021/08/13 05:42:49;;;;;;;;;;;;;;;;;;2103058;28;1783;-78
2021/08/13 05:43:50;;;;;;;;;;;;;;;;;;2105193;28;1499;-78
2021/08/13 05:44:52;;;;;;;;;;;;;;;;;;2104420;28;1971;-78
2021/08/13 05:45:53;;;;;;;;;;;;;;;;;;2112131;28;1834;-76
2021/08/13 05:46:54;;;;;;;;;;;;;;;;;;2107539;28;1316;-76
2021/08/13 05:47:56;;;;;;;;;;;;;;;;;;2112105;28;1678;-76
2021/08/13 05:48:58;;;;;;;;;;;;;;;;;;2103424;28;1345;-76
2021/08/13 05:49:59;;;;;;;;;;;;;;;;;;2111865;28;1428;-76
2021/08/13 05:51:01;;;;;;;;;;;;;;;;;;2103150;28;1391;-77
2021/08/13 05:52:04;;;;;;;;;;;;;;;;;;2104863;28;1527;-76
2021/08/13 05:53:05;;;;;;;;;;;;;;;;;;2104265;28;1400;-77
2021/08/13 05:54:10;;;;;;;;;;;;;;;;;;2113105;28;1213;-76
2021/08/13 05:55:12;;;;;;;;;;;;;;;;;;2104875;28;1769;-76
2021/08/13 05:56:14;;;;;;;;;;;;;;;;;;2113899;28;1936;-76
2021/08/13 05:57:16;;;;;;;;;;;;;;;;;;2102867;28;1752;-76
2021/08/13 05:58:18;;;;;;;;;;;;;;;;;;2112175;28;1264;-77
2021/08/13 05:59:18;;;;;;;;;;;;;;;;;;2111634;28;1477;-77
2021/08/13 06:00:21;;;;;;;;;;;;;;;;;;2111685;28;1467;-76
2021/08/13 06:01:36;;;;;;;;;;;;;;;;;;2113079;28;1469;-77
2021/08/13 06:02:39;;;;;;;;;;;;;;;;;;2102768;28;1376;-76
2021/08/13 06:03:40;;;;;;;;;;;;;;;;;;2111532;28;1347;-77
2021/08/13 06:04:42;;;;;;;;;;;;;;;;;;2111653;28;1572;-76
2021/08/13 06:05:43;;;;;;;;;;;;;;;;;;2103940;28;1918;-76
2021/08/13 06:06:45;;;;;;;;;;;;;;;;;;2104544;28;1560;-76
2021/08/13 06:07:47;;;;;;;;;;;;;;;;;;2102543;28;1383;-77
2021/08/13 06:08:49;;;;;;;;;;;;;;;;;;2106374;28;1428;-77
2021/08/13 06:09:50;;;;;;;;;;;;;;;;;;2101631;28;1410;-79
2021/08/13 06:10:52;;;;;;;;;;;;;;;;;;2102102;28;1686;-76
2021/08/13 06:11:53;;;;;;;;;;;;;;;;;;2102498;28;1380;-77
2021/08/13 06:12:56;;;;;;;;;;;;;;;;;;2112229;28;1352;-77
2021/08/13 06:13:57;;;;;;;;;;;;;;;;;;2110995;28;1373;-78
2021/08/13 06:14:59;;;;;;;;;;;;;;;;;;2103156;28;1536;-78
2021/08/13 06:16:00;;;;;;;;;;;;;;;;;;2103003;28;1419;-77
2021/08/13 06:17:03;;;;;;;;;;;;;;;;;;2106961;28;1536;-77
2021/08/13 06:18:04;;;;;;;;;;;;;;;;;;2104611;28;1348;-76
2021/08/13 06:19:05;;;;;;;;;;;;;;;;;;2104470;28;1450;-76
2021/08/13 06:20:10;;;;;;;;;;;;;;;;;;2109995;28;1383;-77
2021/08/13 06:21:12;;;;;;;;;;;;;;;;;;2102592;28;1722;-79
2021/08/13 06:22:13;;;;;;;;;;;;;;;;;;2102397;28;1505;-77
2021/08/13 06:23:15;;;;;;;;;;;;;;;;;;2103653;28;1554;-77
2021/08/13 06:24:15;;;;;;;;;;;;;;;;;;2109522;28;1530;-77
2021/08/13 06:25:17;;;;;;;;;;;;;;;;;;2101747;28;1918;-77
2021/08/13 06:26:18;;;;;;;;;;;;;;;;;;2102798;28;1191;-78
2021/08/13 06:27:23;;;;;;;;;;;;;;;;;;2101098;28;1808;-77
2021/08/13 06:28:26;;;;;;;;;;;;;;;;;;2104043;28;1263;-77
2021/08/13 06:29:28;;;;;;;;;;;;;;;;;;2104640;28;1228;-77
2021/08/13 06:30:29;;;;;;;;;;;;;;;;;;2103493;28;1426;-77
2021/08/13 06:31:31;;;;;;;;;;;;;;;;;;2112267;28;1891;-77
2021/08/13 06:32:31;;;;;;;;;;;;;;;;;;2103611;28;1333;-78
2021/08/13 06:33:33;;;;;;;;;;;;;;;;;;2096098;28;1613;-78
2021/08/13 06:34:34;;;;;;;;;;;;;;;;;;2110395;28;1567;-80
2021/08/13 06:35:36;;;;;;;;;;;;;;;;;;2101895;28;1319;-79
2021/08/13 06:36:39;;;;;;;;;;;;;;;;;;2103879;28;1420;-80
2021/08/13 06:37:43;;;;;;;;;;;;;;;;;;2104300;28;1703;-79
2021/08/13 06:38:45;;;;;;;;;;;;;;;;;;2110654;28;1218;-79
2021/08/13 06:39:46;;;;;;;;;;;;;;;;;;2111529;28;1335;-78
2021/08/13 06:40:48;;;;;;;;;;;;;;;;;;2102932;28;1516;-79
2021/08/13 06:41:52;;;;;;;;;;;;;;;;;;2102759;28;1340;-78
2021/08/13 06:43:03;;;;;;;;;;;;;;;;;;2105069;28;1771;-79
2021/08/13 06:44:07;;;;;;;;;;;;;;;;;;2102746;28;1276;-79
2021/08/13 06:45:10;;;;;;;;;;;;;;;;;;2102842;28;1320;-79
2021/08/13 06:46:11;;;;;;;;;;;;;;;;;;2103008;28;1906;-79
2021/08/13 06:47:13;;;;;;;;;;;;;;;;;;2103479;28;1442;-79
2021/08/13 06:48:13;;;;;;;;;;;;;;;;;;2102852;28;1855;-79
2021/08/13 06:49:15;;;;;;;;;;;;;;;;;;2107210;28;1874;-79
2021/08/13 06:50:16;;;;;;;;;;;;;;;;;;2109808;28;1750;-79
2021/08/13 06:51:22;;;;;;;;;;;;;;;;;;2106683;28;1813;-80
2021/08/13 06:52:22;;;;;;;;;;;;;;;;;;2111257;28;1831;-79
2021/08/13 06:53:24;;;;;;;;;;;;;;;;;;2111556;28;1361;-79
2021/08/13 06:54:25;;;;;;;;;;;;;;;;;;2101382;28;1492;-79
2021/08/13 06:55:27;;;;;;;;;;;;;;;;;;2103001;28;1467;-79
2021/08/13 06:56:31;;;;;;;;;;;;;;;;;;2112884;28;1891;-79
2021/08/13 06:57:33;;;;;;;;;;;;;;;;;;2111540;28;1570;-79
2021/08/13 06:58:35;;;;;;;;;;;;;;;;;;2103033;28;1302;-80
2021/08/13 06:59:39;;;;;;;;;;;;;;;;;;2094970;28;1449;-80
2021/08/13 07:00:41;;;;;;;;;;;;;;;;;;2095265;28;1680;-79
2021/08/13 07:01:43;;;;;;;;;;;;;;;;;;2111186;28;1555;-79
2021/08/13 07:02:49;;;;;;;;;;;;;;;;;;2111165;28;1628;-78
2021/08/13 07:03:51;;;;;;;;;;;;;;;;;;2111818;28;1331;-78
2021/08/13 07:04:51;;;;;;;;;;;;;;;;;;2109547;28;1351;-78
2021/08/13 07:05:53;;;;;;;;;;;;;;;;;;2105699;28;1977;-79
2021/08/13 07:06:54;;;;;;;;;;;;;;;;;;2105079;28;1531;-78
2021/08/13 07:07:57;;;;;;;;;;;;;;;;;;2114781;28;1765;-78
2021/08/13 07:08:59;;;;;;;;;;;;;;;;;;2102374;28;1372;-79
2021/08/13 07:10:04;;;;;;;;;;;;;;;;;;2112187;28;1440;-77
2021/08/13 07:11:06;;;;;;;;;;;;;;;;;;2102465;28;1692;-77
2021/08/13 07:12:08;;;;;;;;;;;;;;;;;;2112268;28;1344;-79
2021/08/13 07:13:09;;;;;;;;;;;;;;;;;;2100612;28;1772;-79
2021/08/13 07:14:11;;;;;;;;;;;;;;;;;;2095529;28;1656;-80
2021/08/13 07:15:17;;;;;;;;;;;;;;;;;;2091189;28;1453;-79
2021/08/13 07:16:21;;;;;;;;;;;;;;;;;;2099017;28;1849;-78
2021/08/13 07:17:23;;;;;;;;;;;;;;;;;;2103151;28;1380;-79
2021/08/13 07:18:25;;;;;;;;;;;;;;;;;;2102146;28;1475;-79
2021/08/13 07:19:29;;;;;;;;;;;;;;;;;;2101137;28;1673;-84